Atlantic - Newfoundland: Past 24 Hour Conditions

 

La Scie

06:30 AM NDT 31 October 2014
This table is a summary of hourly weather conditions for the past 24 hours.
Date / Time
(NDT)
Wind(knots) Conditions Visibility(km) Pressure(kPa) Air tempC) Relative humidity(%) Dew pointC)
31 October 2014
6:30 7 N/A N/A 100.7 3 95 3
5:30 calm N/A N/A 100.6 4 95 3
4:30 4 N/A N/A 100.5 4 94 3
3:30 7 N/A N/A 100.5 5 92 4
2:30 8 gust 15 N/A N/A 100.4 5 88 4
1:30 10 gust 16 N/A N/A 100.4 5 85 3
0:30 10 gust 16 N/A N/A 100.3 5 85 3
30 October 2014
23:30 11 gust 21 N/A N/A 100.3 5 84 2
22:30 7 gust 17 N/A N/A 100.3 5 90 3
21:30 7 N/A N/A 100.3 6 93 5
20:30 3 N/A N/A 100.3 7 89 5
19:30 4 N/A N/A 100.2 7 84 5
18:30 10 gust 16 N/A N/A 100.2 8 79 4
17:30 8 gust 15 N/A N/A 100.1 9 78 6
16:30 11 gust 21 N/A N/A 100.0 11 75 7
15:30 9 gust 18 N/A N/A 100.0 12 85 9
14:30 12 gust 23 N/A N/A 99.9 14 83 11
13:30 8 gust 15 N/A N/A 99.9 13 100 13
12:30 10 gust 17 N/A N/A 99.9 12 100 12
11:30 9 N/A N/A 99.8 12 100 12
10:30 8 gust 15 N/A N/A 99.8 11 100 11
9:30 9 gust 16 N/A N/A 99.9 10 100 10
8:30 8 N/A N/A 100.0 9 100 9
7:30 8 gust 16 N/A N/A 100.1 8 100 8
6:30 10 gust 16 N/A N/A 100.2 7 100 7
 
Map of Atlantic - Newfoundland marine weather areas Southwestern Grand Banks - 44138 Banquereau - 44139 Tail of the Bank - 44140 Nickerson Bank - 44251 Northeast Burgeo Bank - 44255 Blanc-Sablon Airport Cap Whittle Chevery Natashquan Airport Heath Point Miscou Island Grand Étang Ingonish Beach North Mountain St.Paul Island J.A. Douglas McCurdy Sydney Airport Charlottetown Airport East Point North Cape Argentia Bonavista Burgeo Cape Race Corner Brook Daniel's Harbour Englee Ferolle Point La Scie Port aux Basques Rocky Harbour Sagona Island St. Anthony Airport St. John's Int'l Airport St. Lawrence Stephenville Airport Twillingate Winterland Wreckhouse Cartwright Airport Mary's Harbour Grates Cove Pool's Island Marticot Island Long Pond Îles de la Madeleine Airport
Legend: buoyBuoy land stationLand Station